sensor_id;sensor_type;location;lat;lon;timestamp;P1;durP1;ratioP1;P2;durP2;ratioP2
4198;SDS011;2113;50.946;14.610;2022-09-17T00:01:23;3.58;;;1.60;;
4198;SDS011;2113;50.946;14.610;2022-09-17T00:03:53;4.38;;;2.00;;
4198;SDS011;2113;50.946;14.610;2022-09-17T00:06:22;3.78;;;1.58;;
4198;SDS011;2113;50.946;14.610;2022-09-17T00:08:51;5.00;;;1.90;;
4198;SDS011;2113;50.946;14.610;2022-09-17T00:11:22;5.00;;;1.63;;
4198;SDS011;2113;50.946;14.610;2022-09-17T00:13:51;9.55;;;2.33;;
4198;SDS011;2113;50.946;14.610;2022-09-17T00:16:21;4.47;;;1.77;;
4198;SDS011;2113;50.946;14.610;2022-09-17T00:18:51;4.78;;;2.17;;
4198;SDS011;2113;50.946;14.610;2022-09-17T00:21:19;6.40;;;1.70;;
4198;SDS011;2113;50.946;14.610;2022-09-17T00:23:47;8.10;;;2.65;;
4198;SDS011;2113;50.946;14.610;2022-09-17T00:26:15;5.15;;;2.22;;
4198;SDS011;2113;50.946;14.610;2022-09-17T00:28:44;7.63;;;1.98;;
4198;SDS011;2113;50.946;14.610;2022-09-17T00:31:16;4.47;;;2.40;;
4198;SDS011;2113;50.946;14.610;2022-09-17T00:33:44;4.15;;;2.13;;
4198;SDS011;2113;50.946;14.610;2022-09-17T00:36:11;3.00;;;2.00;;
4198;SDS011;2113;50.946;14.610;2022-09-17T00:38:39;4.22;;;2.28;;
4198;SDS011;2113;50.946;14.610;2022-09-17T00:41:07;4.55;;;2.13;;
4198;SDS011;2113;50.946;14.610;2022-09-17T00:43:37;6.00;;;2.20;;
4198;SDS011;2113;50.946;14.610;2022-09-17T00:46:16;9.70;;;1.88;;
4198;SDS011;2113;50.946;14.610;2022-09-17T00:48:52;6.85;;;1.95;;
4198;SDS011;2113;50.946;14.610;2022-09-17T00:51:22;3.60;;;1.70;;
4198;SDS011;2113;50.946;14.610;2022-09-17T00:53:55;7.57;;;2.85;;
4198;SDS011;2113;50.946;14.610;2022-09-17T00:56:24;8.60;;;1.85;;
4198;SDS011;2113;50.946;14.610;2022-09-17T00:58:54;4.53;;;2.17;;
4198;SDS011;2113;50.946;14.610;2022-09-17T01:01:23;5.00;;;2.08;;
4198;SDS011;2113;50.946;14.610;2022-09-17T01:03:51;4.82;;;2.03;;
4198;SDS011;2113;50.946;14.610;2022-09-17T01:06:21;4.00;;;1.50;;
4198;SDS011;2113;50.946;14.610;2022-09-17T01:08:59;4.00;;;1.83;;
4198;SDS011;2113;50.946;14.610;2022-09-17T01:11:44;4.28;;;2.42;;
4198;SDS011;2113;50.946;14.610;2022-09-17T01:14:31;5.10;;;2.15;;
4198;SDS011;2113;50.946;14.610;2022-09-17T01:17:11;7.07;;;2.08;;
4198;SDS011;2113;50.946;14.610;2022-09-17T01:22:52;5.38;;;1.60;;
4198;SDS011;2113;50.946;14.610;2022-09-17T01:25:35;2.88;;;1.70;;
4198;SDS011;2113;50.946;14.610;2022-09-17T01:28:23;7.40;;;2.35;;
4198;SDS011;2113;50.946;14.610;2022-09-17T01:34:03;3.65;;;2.17;;
4198;SDS011;2113;50.946;14.610;2022-09-17T01:36:41;7.40;;;2.40;;
4198;SDS011;2113;50.946;14.610;2022-09-17T01:39:20;5.40;;;1.92;;
4198;SDS011;2113;50.946;14.610;2022-09-17T01:42:00;5.32;;;2.30;;
4198;SDS011;2113;50.946;14.610;2022-09-17T01:44:38;7.93;;;2.35;;
4198;SDS011;2113;50.946;14.610;2022-09-17T01:47:14;6.63;;;2.00;;
4198;SDS011;2113;50.946;14.610;2022-09-17T01:49:47;5.03;;;2.28;;
4198;SDS011;2113;50.946;14.610;2022-09-17T01:52:17;10.68;;;2.72;;
4198;SDS011;2113;50.946;14.610;2022-09-17T01:54:46;5.05;;;1.90;;
4198;SDS011;2113;50.946;14.610;2022-09-17T01:57:21;3.95;;;2.30;;
4198;SDS011;2113;50.946;14.610;2022-09-17T01:59:54;4.88;;;1.95;;
4198;SDS011;2113;50.946;14.610;2022-09-17T02:02:29;5.32;;;2.20;;
4198;SDS011;2113;50.946;14.610;2022-09-17T02:05:02;5.13;;;2.20;;
4198;SDS011;2113;50.946;14.610;2022-09-17T02:07:36;7.53;;;3.38;;
4198;SDS011;2113;50.946;14.610;2022-09-17T02:10:09;4.35;;;1.60;;
4198;SDS011;2113;50.946;14.610;2022-09-17T02:12:40;6.30;;;1.60;;
4198;SDS011;2113;50.946;14.610;2022-09-17T02:15:13;4.65;;;2.05;;
4198;SDS011;2113;50.946;14.610;2022-09-17T02:17:49;3.25;;;1.80;;
4198;SDS011;2113;50.946;14.610;2022-09-17T02:20:22;5.47;;;2.17;;
4198;SDS011;2113;50.946;14.610;2022-09-17T02:22:56;4.22;;;2.20;;
4198;SDS011;2113;50.946;14.610;2022-09-17T02:25:30;8.93;;;1.92;;
4198;SDS011;2113;50.946;14.610;2022-09-17T02:28:03;3.50;;;2.08;;
4198;SDS011;2113;50.946;14.610;2022-09-17T02:30:38;9.82;;;4.38;;
4198;SDS011;2113;50.946;14.610;2022-09-17T02:33:08;3.10;;;2.08;;
4198;SDS011;2113;50.946;14.610;2022-09-17T02:35:40;7.85;;;2.80;;
4198;SDS011;2113;50.946;14.610;2022-09-17T02:38:08;4.72;;;2.22;;
4198;SDS011;2113;50.946;14.610;2022-09-17T02:40:39;7.88;;;2.63;;
4198;SDS011;2113;50.946;14.610;2022-09-17T02:43:13;3.00;;;1.70;;
4198;SDS011;2113;50.946;14.610;2022-09-17T02:45:51;4.30;;;2.05;;
4198;SDS011;2113;50.946;14.610;2022-09-17T02:51:39;5.82;;;1.90;;
4198;SDS011;2113;50.946;14.610;2022-09-17T02:54:17;7.22;;;2.58;;
4198;SDS011;2113;50.946;14.610;2022-09-17T02:56:55;5.72;;;2.65;;
4198;SDS011;2113;50.946;14.610;2022-09-17T02:59:32;4.32;;;2.13;;
4198;SDS011;2113;50.946;14.610;2022-09-17T03:02:07;7.03;;;2.50;;
4198;SDS011;2113;50.946;14.610;2022-09-17T03:04:43;6.35;;;2.78;;
4198;SDS011;2113;50.946;14.610;2022-09-17T03:07:13;4.03;;;2.25;;
4198;SDS011;2113;50.946;14.610;2022-09-17T03:09:45;5.70;;;2.65;;
4198;SDS011;2113;50.946;14.610;2022-09-17T03:12:13;4.30;;;1.92;;
4198;SDS011;2113;50.946;14.610;2022-09-17T03:14:41;3.50;;;1.77;;
4198;SDS011;2113;50.946;14.610;2022-09-17T03:17:09;5.65;;;1.80;;
4198;SDS011;2113;50.946;14.610;2022-09-17T03:19:38;6.10;;;3.10;;
4198;SDS011;2113;50.946;14.610;2022-09-17T03:22:07;7.60;;;2.05;;
4198;SDS011;2113;50.946;14.610;2022-09-17T03:24:35;6.82;;;1.98;;
4198;SDS011;2113;50.946;14.610;2022-09-17T03:27:03;8.90;;;2.08;;
4198;SDS011;2113;50.946;14.610;2022-09-17T03:29:31;4.07;;;2.45;;
4198;SDS011;2113;50.946;14.610;2022-09-17T03:32:00;6.53;;;2.75;;
4198;SDS011;2113;50.946;14.610;2022-09-17T03:34:29;3.28;;;1.70;;
4198;SDS011;2113;50.946;14.610;2022-09-17T03:36:56;6.50;;;2.20;;
4198;SDS011;2113;50.946;14.610;2022-09-17T03:39:26;4.57;;;2.60;;
4198;SDS011;2113;50.946;14.610;2022-09-17T03:41:54;5.60;;;1.95;;
4198;SDS011;2113;50.946;14.610;2022-09-17T03:44:22;3.72;;;2.15;;
4198;SDS011;2113;50.946;14.610;2022-09-17T03:46:51;3.75;;;1.95;;
4198;SDS011;2113;50.946;14.610;2022-09-17T03:49:19;4.20;;;2.10;;
4198;SDS011;2113;50.946;14.610;2022-09-17T03:51:47;9.32;;;2.40;;
4198;SDS011;2113;50.946;14.610;2022-09-17T03:54:14;5.80;;;1.65;;
4198;SDS011;2113;50.946;14.610;2022-09-17T03:56:44;4.93;;;2.10;;
4198;SDS011;2113;50.946;14.610;2022-09-17T03:59:12;3.78;;;2.80;;
4198;SDS011;2113;50.946;14.610;2022-09-17T04:01:40;5.13;;;2.20;;
4198;SDS011;2113;50.946;14.610;2022-09-17T04:04:08;8.13;;;2.50;;
4198;SDS011;2113;50.946;14.610;2022-09-17T04:06:36;5.30;;;2.47;;
4198;SDS011;2113;50.946;14.610;2022-09-17T04:09:04;3.65;;;2.00;;
4198;SDS011;2113;50.946;14.610;2022-09-17T04:11:32;4.05;;;2.13;;
4198;SDS011;2113;50.946;14.610;2022-09-17T04:14:01;4.45;;;3.15;;
4198;SDS011;2113;50.946;14.610;2022-09-17T04:16:29;5.25;;;2.80;;
4198;SDS011;2113;50.946;14.610;2022-09-17T04:18:57;6.35;;;2.92;;
4198;SDS011;2113;50.946;14.610;2022-09-17T04:21:25;6.28;;;2.40;;
4198;SDS011;2113;50.946;14.610;2022-09-17T04:23:53;9.02;;;4.00;;
4198;SDS011;2113;50.946;14.610;2022-09-17T04:26:21;6.85;;;2.65;;
4198;SDS011;2113;50.946;14.610;2022-09-17T04:28:49;7.00;;;2.50;;
4198;SDS011;2113;50.946;14.610;2022-09-17T04:31:21;8.13;;;2.17;;
4198;SDS011;2113;50.946;14.610;2022-09-17T04:33:50;10.55;;;4.50;;
4198;SDS011;2113;50.946;14.610;2022-09-17T04:36:18;3.33;;;1.95;;
4198;SDS011;2113;50.946;14.610;2022-09-17T04:38:46;7.70;;;2.67;;
4198;SDS011;2113;50.946;14.610;2022-09-17T04:41:14;4.43;;;3.42;;
4198;SDS011;2113;50.946;14.610;2022-09-17T04:43:42;4.78;;;2.78;;
4198;SDS011;2113;50.946;14.610;2022-09-17T04:46:10;4.82;;;2.33;;
4198;SDS011;2113;50.946;14.610;2022-09-17T04:48:41;6.70;;;3.30;;
4198;SDS011;2113;50.946;14.610;2022-09-17T04:51:09;7.88;;;2.80;;
4198;SDS011;2113;50.946;14.610;2022-09-17T04:53:36;10.15;;;3.55;;
4198;SDS011;2113;50.946;14.610;2022-09-17T04:56:04;5.00;;;2.90;;
4198;SDS011;2113;50.946;14.610;2022-09-17T04:58:32;8.32;;;3.10;;
4198;SDS011;2113;50.946;14.610;2022-09-17T05:01:00;7.03;;;4.07;;
4198;SDS011;2113;50.946;14.610;2022-09-17T05:03:28;12.80;;;5.78;;
4198;SDS011;2113;50.946;14.610;2022-09-17T05:05:57;6.63;;;3.28;;
4198;SDS011;2113;50.946;14.610;2022-09-17T05:08:25;6.20;;;2.92;;
4198;SDS011;2113;50.946;14.610;2022-09-17T05:10:53;4.97;;;3.35;;
4198;SDS011;2113;50.946;14.610;2022-09-17T05:13:21;10.50;;;4.22;;
4198;SDS011;2113;50.946;14.610;2022-09-17T05:15:49;6.35;;;3.90;;
4198;SDS011;2113;50.946;14.610;2022-09-17T05:18:17;4.95;;;3.40;;
4198;SDS011;2113;50.946;14.610;2022-09-17T05:20:45;7.53;;;4.25;;
4198;SDS011;2113;50.946;14.610;2022-09-17T05:23:14;5.63;;;3.55;;
4198;SDS011;2113;50.946;14.610;2022-09-17T05:25:43;8.60;;;3.83;;
4198;SDS011;2113;50.946;14.610;2022-09-17T05:28:10;6.95;;;3.92;;
4198;SDS011;2113;50.946;14.610;2022-09-17T05:30:38;6.90;;;4.60;;
4198;SDS011;2113;50.946;14.610;2022-09-17T05:33:06;10.23;;;4.55;;
4198;SDS011;2113;50.946;14.610;2022-09-17T05:35:34;9.93;;;5.30;;
4198;SDS011;2113;50.946;14.610;2022-09-17T05:38:03;10.35;;;4.00;;
4198;SDS011;2113;50.946;14.610;2022-09-17T05:40:34;8.13;;;4.40;;
4198;SDS011;2113;50.946;14.610;2022-09-17T05:43:04;8.10;;;4.20;;
4198;SDS011;2113;50.946;14.610;2022-09-17T05:45:33;9.85;;;5.15;;
4198;SDS011;2113;50.946;14.610;2022-09-17T05:48:03;8.60;;;4.65;;
4198;SDS011;2113;50.946;14.610;2022-09-17T05:50:36;9.93;;;4.60;;
4198;SDS011;2113;50.946;14.610;2022-09-17T05:53:04;6.97;;;4.63;;
4198;SDS011;2113;50.946;14.610;2022-09-17T05:55:34;8.38;;;4.88;;
4198;SDS011;2113;50.946;14.610;2022-09-17T05:58:07;9.98;;;5.38;;
4198;SDS011;2113;50.946;14.610;2022-09-17T06:00:36;11.52;;;6.47;;
4198;SDS011;2113;50.946;14.610;2022-09-17T06:03:04;9.93;;;4.57;;
4198;SDS011;2113;50.946;14.610;2022-09-17T06:05:32;8.18;;;4.18;;
4198;SDS011;2113;50.946;14.610;2022-09-17T06:08:00;8.13;;;5.03;;
4198;SDS011;2113;50.946;14.610;2022-09-17T06:10:29;10.05;;;4.68;;
4198;SDS011;2113;50.946;14.610;2022-09-17T06:12:58;5.72;;;3.80;;
4198;SDS011;2113;50.946;14.610;2022-09-17T06:15:26;9.95;;;4.07;;
4198;SDS011;2113;50.946;14.610;2022-09-17T06:17:54;8.98;;;4.60;;
4198;SDS011;2113;50.946;14.610;2022-09-17T06:20:22;11.00;;;5.03;;
4198;SDS011;2113;50.946;14.610;2022-09-17T06:22:54;7.70;;;5.10;;
4198;SDS011;2113;50.946;14.610;2022-09-17T06:25:23;6.53;;;4.43;;
4198;SDS011;2113;50.946;14.610;2022-09-17T06:27:51;6.50;;;5.22;;
4198;SDS011;2113;50.946;14.610;2022-09-17T06:30:21;6.60;;;4.50;;
4198;SDS011;2113;50.946;14.610;2022-09-17T06:32:48;7.85;;;4.90;;
4198;SDS011;2113;50.946;14.610;2022-09-17T06:35:17;13.52;;;5.35;;
4198;SDS011;2113;50.946;14.610;2022-09-17T06:37:46;8.80;;;4.45;;
4198;SDS011;2113;50.946;14.610;2022-09-17T06:40:14;6.25;;;4.53;;
4198;SDS011;2113;50.946;14.610;2022-09-17T06:42:42;7.47;;;4.45;;
4198;SDS011;2113;50.946;14.610;2022-09-17T06:45:10;5.40;;;4.10;;
4198;SDS011;2113;50.946;14.610;2022-09-17T06:47:43;20.92;;;4.55;;
4198;SDS011;2113;50.946;14.610;2022-09-17T06:50:11;5.28;;;4.15;;
4198;SDS011;2113;50.946;14.610;2022-09-17T06:52:46;5.82;;;3.45;;
4198;SDS011;2113;50.946;14.610;2022-09-17T06:55:14;7.88;;;4.22;;
4198;SDS011;2113;50.946;14.610;2022-09-17T06:57:42;6.10;;;4.20;;
4198;SDS011;2113;50.946;14.610;2022-09-17T07:00:11;5.70;;;3.63;;
4198;SDS011;2113;50.946;14.610;2022-09-17T07:02:40;6.93;;;3.90;;
4198;SDS011;2113;50.946;14.610;2022-09-17T07:05:09;5.90;;;3.28;;
4198;SDS011;2113;50.946;14.610;2022-09-17T07:07:37;6.07;;;4.07;;
4198;SDS011;2113;50.946;14.610;2022-09-17T07:10:06;7.30;;;3.40;;
4198;SDS011;2113;50.946;14.610;2022-09-17T07:12:38;5.22;;;3.58;;
4198;SDS011;2113;50.946;14.610;2022-09-17T07:15:07;10.30;;;4.05;;
4198;SDS011;2113;50.946;14.610;2022-09-17T07:17:36;7.68;;;4.80;;
4198;SDS011;2113;50.946;14.610;2022-09-17T07:20:05;7.15;;;4.78;;
4198;SDS011;2113;50.946;14.610;2022-09-17T07:22:35;6.65;;;3.35;;
4198;SDS011;2113;50.946;14.610;2022-09-17T07:25:04;4.20;;;2.95;;
4198;SDS011;2113;50.946;14.610;2022-09-17T07:27:33;4.25;;;2.15;;
4198;SDS011;2113;50.946;14.610;2022-09-17T07:30:01;7.55;;;2.33;;
4198;SDS011;2113;50.946;14.610;2022-09-17T07:32:29;2.90;;;2.20;;
4198;SDS011;2113;50.946;14.610;2022-09-17T07:34:57;5.80;;;4.45;;
4198;SDS011;2113;50.946;14.610;2022-09-17T07:37:26;2.67;;;1.88;;
4198;SDS011;2113;50.946;14.610;2022-09-17T07:39:56;5.70;;;3.03;;
4198;SDS011;2113;50.946;14.610;2022-09-17T07:42:24;3.45;;;2.53;;
4198;SDS011;2113;50.946;14.610;2022-09-17T07:44:52;10.32;;;5.18;;
4198;SDS011;2113;50.946;14.610;2022-09-17T07:47:27;10.45;;;8.07;;
4198;SDS011;2113;50.946;14.610;2022-09-17T07:49:55;3.60;;;2.40;;
4198;SDS011;2113;50.946;14.610;2022-09-17T07:52:23;2.85;;;2.05;;
4198;SDS011;2113;50.946;14.610;2022-09-17T07:54:51;3.35;;;1.60;;
4198;SDS011;2113;50.946;14.610;2022-09-17T07:57:20;3.25;;;1.90;;
4198;SDS011;2113;50.946;14.610;2022-09-17T07:59:48;3.35;;;1.90;;
4198;SDS011;2113;50.946;14.610;2022-09-17T08:02:16;3.42;;;2.30;;
4198;SDS011;2113;50.946;14.610;2022-09-17T08:04:49;3.50;;;2.20;;
4198;SDS011;2113;50.946;14.610;2022-09-17T08:07:17;3.47;;;2.50;;
4198;SDS011;2113;50.946;14.610;2022-09-17T08:09:45;3.25;;;2.33;;
4198;SDS011;2113;50.946;14.610;2022-09-17T08:12:13;3.53;;;2.38;;
4198;SDS011;2113;50.946;14.610;2022-09-17T08:14:42;4.35;;;1.85;;
4198;SDS011;2113;50.946;14.610;2022-09-17T08:17:10;3.53;;;2.15;;
4198;SDS011;2113;50.946;14.610;2022-09-17T08:19:38;6.60;;;1.85;;
4198;SDS011;2113;50.946;14.610;2022-09-17T08:22:06;6.05;;;3.00;;
4198;SDS011;2113;50.946;14.610;2022-09-17T08:24:34;3.03;;;1.70;;
4198;SDS011;2113;50.946;14.610;2022-09-17T08:27:02;4.13;;;1.80;;
4198;SDS011;2113;50.946;14.610;2022-09-17T08:29:30;3.92;;;2.10;;
4198;SDS011;2113;50.946;14.610;2022-09-17T08:32:03;3.25;;;1.83;;
4198;SDS011;2113;50.946;14.610;2022-09-17T08:34:32;2.88;;;1.75;;
4198;SDS011;2113;50.946;14.610;2022-09-17T08:37:02;2.22;;;1.10;;
4198;SDS011;2113;50.946;14.610;2022-09-17T08:39:29;6.63;;;1.95;;
4198;SDS011;2113;50.946;14.610;2022-09-17T08:42:01;2.83;;;1.50;;
4198;SDS011;2113;50.946;14.610;2022-09-17T08:44:37;2.67;;;1.80;;
4198;SDS011;2113;50.946;14.610;2022-09-17T08:47:12;3.20;;;1.40;;
4198;SDS011;2113;50.946;14.610;2022-09-17T08:49:47;3.15;;;1.40;;
4198;SDS011;2113;50.946;14.610;2022-09-17T08:52:24;2.33;;;1.10;;
4198;SDS011;2113;50.946;14.610;2022-09-17T08:55:22;1.95;;;0.93;;
4198;SDS011;2113;50.946;14.610;2022-09-17T08:58:06;1.98;;;0.88;;
4198;SDS011;2113;50.946;14.610;2022-09-17T09:00:47;2.35;;;0.95;;
4198;SDS011;2113;50.946;14.610;2022-09-17T09:03:24;3.00;;;1.60;;
4198;SDS011;2113;50.946;14.610;2022-09-17T09:06:02;3.35;;;1.45;;
4198;SDS011;2113;50.946;14.610;2022-09-17T09:08:36;3.97;;;2.08;;
4198;SDS011;2113;50.946;14.610;2022-09-17T09:11:10;6.60;;;2.90;;
4198;SDS011;2113;50.946;14.610;2022-09-17T09:13:43;4.65;;;2.00;;
4198;SDS011;2113;50.946;14.610;2022-09-17T09:16:14;4.40;;;2.22;;
4198;SDS011;2113;50.946;14.610;2022-09-17T09:18:45;5.30;;;2.58;;
4198;SDS011;2113;50.946;14.610;2022-09-17T09:21:22;6.47;;;3.53;;
4198;SDS011;2113;50.946;14.610;2022-09-17T09:23:54;5.43;;;3.25;;
4198;SDS011;2113;50.946;14.610;2022-09-17T09:26:30;6.65;;;3.10;;
4198;SDS011;2113;50.946;14.610;2022-09-17T09:29:09;8.23;;;4.03;;
4198;SDS011;2113;50.946;14.610;2022-09-17T09:31:57;10.48;;;4.43;;
4198;SDS011;2113;50.946;14.610;2022-09-17T09:34:44;9.25;;;4.40;;
4198;SDS011;2113;50.946;14.610;2022-09-17T09:37:15;6.97;;;4.22;;
4198;SDS011;2113;50.946;14.610;2022-09-17T09:39:47;11.27;;;4.93;;
4198;SDS011;2113;50.946;14.610;2022-09-17T09:42:18;17.25;;;4.32;;
4198;SDS011;2113;50.946;14.610;2022-09-17T09:44:56;12.45;;;4.65;;
4198;SDS011;2113;50.946;14.610;2022-09-17T09:47:37;9.70;;;5.22;;
4198;SDS011;2113;50.946;14.610;2022-09-17T09:50:26;10.45;;;5.97;;
4198;SDS011;2113;50.946;14.610;2022-09-17T09:53:21;6.72;;;3.97;;
4198;SDS011;2113;50.946;14.610;2022-09-17T09:56:04;6.97;;;4.15;;
4198;SDS011;2113;50.946;14.610;2022-09-17T09:58:42;11.52;;;5.95;;
4198;SDS011;2113;50.946;14.610;2022-09-17T10:01:10;7.72;;;4.30;;
4198;SDS011;2113;50.946;14.610;2022-09-17T10:03:41;11.65;;;5.03;;
4198;SDS011;2113;50.946;14.610;2022-09-17T10:06:13;10.48;;;5.45;;
4198;SDS011;2113;50.946;14.610;2022-09-17T10:11:39;12.23;;;4.72;;
4198;SDS011;2113;50.946;14.610;2022-09-17T10:14:18;14.32;;;5.63;;
4198;SDS011;2113;50.946;14.610;2022-09-17T10:16:49;13.10;;;5.80;;
4198;SDS011;2113;50.946;14.610;2022-09-17T10:19:37;15.30;;;5.75;;
4198;SDS011;2113;50.946;14.610;2022-09-17T10:22:18;16.13;;;6.40;;
4198;SDS011;2113;50.946;14.610;2022-09-17T10:24:53;11.27;;;5.53;;
4198;SDS011;2113;50.946;14.610;2022-09-17T10:27:23;12.80;;;5.00;;
4198;SDS011;2113;50.946;14.610;2022-09-17T10:29:56;11.13;;;4.72;;
4198;SDS011;2113;50.946;14.610;2022-09-17T10:32:29;10.75;;;5.43;;
4198;SDS011;2113;50.946;14.610;2022-09-17T10:34:58;10.10;;;4.30;;
4198;SDS011;2113;50.946;14.610;2022-09-17T10:37:32;13.35;;;4.40;;
4198;SDS011;2113;50.946;14.610;2022-09-17T10:40:11;15.32;;;3.83;;
4198;SDS011;2113;50.946;14.610;2022-09-17T10:45:53;7.00;;;4.15;;
4198;SDS011;2113;50.946;14.610;2022-09-17T10:48:24;9.38;;;3.55;;
4198;SDS011;2113;50.946;14.610;2022-09-17T10:50:55;14.07;;;3.88;;
4198;SDS011;2113;50.946;14.610;2022-09-17T10:53:25;8.48;;;4.53;;
4198;SDS011;2113;50.946;14.610;2022-09-17T10:55:55;6.45;;;2.97;;
4198;SDS011;2113;50.946;14.610;2022-09-17T10:58:34;10.20;;;2.97;;
4198;SDS011;2113;50.946;14.610;2022-09-17T11:01:15;4.93;;;2.78;;
4198;SDS011;2113;50.946;14.610;2022-09-17T11:04:09;9.63;;;2.72;;
4198;SDS011;2113;50.946;14.610;2022-09-17T11:06:58;6.38;;;2.90;;
4198;SDS011;2113;50.946;14.610;2022-09-17T11:09:52;9.10;;;3.28;;
4198;SDS011;2113;50.946;14.610;2022-09-17T11:12:28;7.18;;;2.10;;
4198;SDS011;2113;50.946;14.610;2022-09-17T11:15:05;12.45;;;3.30;;
4198;SDS011;2113;50.946;14.610;2022-09-17T11:17:54;7.18;;;2.58;;
4198;SDS011;2113;50.946;14.610;2022-09-17T11:20:49;3.97;;;2.03;;
4198;SDS011;2113;50.946;14.610;2022-09-17T11:23:32;6.38;;;2.33;;
4198;SDS011;2113;50.946;14.610;2022-09-17T11:26:23;7.13;;;2.75;;
4198;SDS011;2113;50.946;14.610;2022-09-17T11:29:02;5.03;;;2.83;;
4198;SDS011;2113;50.946;14.610;2022-09-17T11:31:45;6.10;;;2.78;;
4198;SDS011;2113;50.946;14.610;2022-09-17T11:34:22;6.78;;;1.90;;
4198;SDS011;2113;50.946;14.610;2022-09-17T11:36:57;4.18;;;2.00;;
4198;SDS011;2113;50.946;14.610;2022-09-17T11:39:33;4.40;;;1.25;;
4198;SDS011;2113;50.946;14.610;2022-09-17T11:42:08;2.60;;;1.63;;
4198;SDS011;2113;50.946;14.610;2022-09-17T11:44:43;3.80;;;1.30;;
4198;SDS011;2113;50.946;14.610;2022-09-17T11:47:17;2.60;;;1.08;;
4198;SDS011;2113;50.946;14.610;2022-09-17T11:49:50;3.47;;;1.08;;
4198;SDS011;2113;50.946;14.610;2022-09-17T11:52:25;2.40;;;1.42;;
4198;SDS011;2113;50.946;14.610;2022-09-17T11:54:56;2.78;;;1.15;;
4198;SDS011;2113;50.946;14.610;2022-09-17T11:57:31;4.28;;;1.33;;
4198;SDS011;2113;50.946;14.610;2022-09-17T12:00:03;3.00;;;1.23;;
4198;SDS011;2113;50.946;14.610;2022-09-17T12:02:43;4.00;;;1.00;;
4198;SDS011;2113;50.946;14.610;2022-09-17T12:05:19;4.43;;;1.38;;
4198;SDS011;2113;50.946;14.610;2022-09-17T12:07:52;4.45;;;1.40;;
4198;SDS011;2113;50.946;14.610;2022-09-17T12:10:30;7.20;;;1.88;;
4198;SDS011;2113;50.946;14.610;2022-09-17T12:13:06;3.35;;;1.25;;
4198;SDS011;2113;50.946;14.610;2022-09-17T12:15:44;2.03;;;1.00;;
4198;SDS011;2113;50.946;14.610;2022-09-17T12:18:26;3.58;;;1.55;;
4198;SDS011;2113;50.946;14.610;2022-09-17T12:21:03;4.78;;;1.25;;
4198;SDS011;2113;50.946;14.610;2022-09-17T12:23:36;3.47;;;1.30;;
4198;SDS011;2113;50.946;14.610;2022-09-17T12:26:13;1.88;;;0.90;;
4198;SDS011;2113;50.946;14.610;2022-09-17T12:28:50;5.50;;;1.23;;
4198;SDS011;2113;50.946;14.610;2022-09-17T12:31:29;3.67;;;1.20;;
4198;SDS011;2113;50.946;14.610;2022-09-17T12:34:03;3.90;;;1.23;;
4198;SDS011;2113;50.946;14.610;2022-09-17T12:36:46;4.88;;;2.00;;
4198;SDS011;2113;50.946;14.610;2022-09-17T12:39:30;4.65;;;1.50;;
4198;SDS011;2113;50.946;14.610;2022-09-17T12:42:23;6.53;;;1.40;;
4198;SDS011;2113;50.946;14.610;2022-09-17T12:45:05;3.35;;;1.15;;
4198;SDS011;2113;50.946;14.610;2022-09-17T12:50:53;3.28;;;1.05;;
4198;SDS011;2113;50.946;14.610;2022-09-17T12:53:29;6.43;;;1.10;;
4198;SDS011;2113;50.946;14.610;2022-09-17T12:56:04;8.48;;;2.67;;
4198;SDS011;2113;50.946;14.610;2022-09-17T12:58:49;4.43;;;1.30;;
4198;SDS011;2113;50.946;14.610;2022-09-17T13:01:33;4.13;;;1.77;;
4198;SDS011;2113;50.946;14.610;2022-09-17T13:04:10;5.90;;;1.48;;
4198;SDS011;2113;50.946;14.610;2022-09-17T13:07:25;11.90;;;2.13;;
4198;SDS011;2113;50.946;14.610;2022-09-17T13:10:20;6.55;;;1.55;;
4198;SDS011;2113;50.946;14.610;2022-09-17T13:13:09;6.97;;;2.67;;
4198;SDS011;2113;50.946;14.610;2022-09-17T13:15:53;11.60;;;1.58;;
4198;SDS011;2113;50.946;14.610;2022-09-17T13:18:30;2.97;;;1.27;;
4198;SDS011;2113;50.946;14.610;2022-09-17T13:21:02;4.28;;;1.60;;
4198;SDS011;2113;50.946;14.610;2022-09-17T13:23:40;2.50;;;1.10;;
4198;SDS011;2113;50.946;14.610;2022-09-17T13:26:10;4.72;;;1.73;;
4198;SDS011;2113;50.946;14.610;2022-09-17T13:28:42;6.05;;;1.40;;
4198;SDS011;2113;50.946;14.610;2022-09-17T13:31:18;3.15;;;1.40;;
4198;SDS011;2113;50.946;14.610;2022-09-17T13:33:49;6.03;;;1.55;;
4198;SDS011;2113;50.946;14.610;2022-09-17T13:36:36;6.53;;;1.95;;
4198;SDS011;2113;50.946;14.610;2022-09-17T13:39:07;10.40;;;2.50;;
4198;SDS011;2113;50.946;14.610;2022-09-17T13:41:58;4.95;;;2.00;;
4198;SDS011;2113;50.946;14.610;2022-09-17T13:44:30;4.90;;;2.00;;
4198;SDS011;2113;50.946;14.610;2022-09-17T13:47:11;6.22;;;2.58;;
4198;SDS011;2113;50.946;14.610;2022-09-17T13:49:57;10.38;;;2.35;;
4198;SDS011;2113;50.946;14.610;2022-09-17T13:52:38;6.88;;;1.90;;
4198;SDS011;2113;50.946;14.610;2022-09-17T13:57:58;5.47;;;2.30;;
4198;SDS011;2113;50.946;14.610;2022-09-17T14:15:31;6.28;;;1.60;;
4198;SDS011;2113;50.946;14.610;2022-09-17T14:18:01;12.52;;;2.22;;
4198;SDS011;2113;50.946;14.610;2022-09-17T14:20:51;4.50;;;1.55;;
4198;SDS011;2113;50.946;14.610;2022-09-17T14:23:22;17.80;;;2.28;;
4198;SDS011;2113;50.946;14.610;2022-09-17T14:25:51;10.63;;;1.90;;
4198;SDS011;2113;50.946;14.610;2022-09-17T14:28:24;7.47;;;2.15;;
4198;SDS011;2113;50.946;14.610;2022-09-17T14:30:59;7.78;;;2.13;;
4198;SDS011;2113;50.946;14.610;2022-09-17T14:33:53;8.70;;;2.05;;
4198;SDS011;2113;50.946;14.610;2022-09-17T14:36:22;4.78;;;2.35;;
4198;SDS011;2113;50.946;14.610;2022-09-17T14:38:52;4.20;;;2.30;;
4198;SDS011;2113;50.946;14.610;2022-09-17T14:41:23;7.18;;;1.80;;
4198;SDS011;2113;50.946;14.610;2022-09-17T14:43:53;3.88;;;1.92;;
4198;SDS011;2113;50.946;14.610;2022-09-17T14:46:24;5.97;;;2.58;;
4198;SDS011;2113;50.946;14.610;2022-09-17T14:49:11;7.28;;;1.75;;
4198;SDS011;2113;50.946;14.610;2022-09-17T14:51:41;6.60;;;2.15;;
4198;SDS011;2113;50.946;14.610;2022-09-17T14:54:15;7.10;;;2.95;;
4198;SDS011;2113;50.946;14.610;2022-09-17T14:56:46;4.32;;;1.83;;
4198;SDS011;2113;50.946;14.610;2022-09-17T14:59:18;5.35;;;1.92;;
4198;SDS011;2113;50.946;14.610;2022-09-17T15:01:49;7.45;;;1.90;;
4198;SDS011;2113;50.946;14.610;2022-09-17T15:04:19;8.68;;;2.60;;
4198;SDS011;2113;50.946;14.610;2022-09-17T15:06:48;8.80;;;2.88;;
4198;SDS011;2113;50.946;14.610;2022-09-17T15:09:21;4.00;;;2.58;;
4198;SDS011;2113;50.946;14.610;2022-09-17T15:11:51;6.60;;;3.08;;
4198;SDS011;2113;50.946;14.610;2022-09-17T15:14:22;7.75;;;2.00;;
4198;SDS011;2113;50.946;14.610;2022-09-17T15:16:57;12.05;;;1.55;;
4198;SDS011;2113;50.946;14.610;2022-09-17T15:19:29;10.52;;;1.90;;
4198;SDS011;2113;50.946;14.610;2022-09-17T15:22:02;7.03;;;2.60;;
4198;SDS011;2113;50.946;14.610;2022-09-17T15:24:37;7.90;;;2.40;;
4198;SDS011;2113;50.946;14.610;2022-09-17T15:27:11;15.40;;;2.85;;
4198;SDS011;2113;50.946;14.610;2022-09-17T15:29:44;5.78;;;2.15;;
4198;SDS011;2113;50.946;14.610;2022-09-17T15:32:16;8.35;;;2.80;;
4198;SDS011;2113;50.946;14.610;2022-09-17T15:34:45;9.05;;;1.83;;
4198;SDS011;2113;50.946;14.610;2022-09-17T15:37:44;7.47;;;1.92;;
4198;SDS011;2113;50.946;14.610;2022-09-17T15:40:33;11.13;;;2.38;;
4198;SDS011;2113;50.946;14.610;2022-09-17T15:43:05;7.13;;;2.70;;
4198;SDS011;2113;50.946;14.610;2022-09-17T15:45:43;9.77;;;3.22;;
4198;SDS011;2113;50.946;14.610;2022-09-17T15:48:19;6.35;;;2.60;;
4198;SDS011;2113;50.946;14.610;2022-09-17T15:51:01;6.70;;;2.00;;
4198;SDS011;2113;50.946;14.610;2022-09-17T15:53:31;6.63;;;2.75;;
4198;SDS011;2113;50.946;14.610;2022-09-17T15:56:02;8.30;;;2.40;;
4198;SDS011;2113;50.946;14.610;2022-09-17T15:58:35;6.80;;;2.85;;
4198;SDS011;2113;50.946;14.610;2022-09-17T16:04:26;5.25;;;2.03;;
4198;SDS011;2113;50.946;14.610;2022-09-17T16:06:59;7.03;;;2.83;;
4198;SDS011;2113;50.946;14.610;2022-09-17T16:09:44;7.53;;;2.70;;
4198;SDS011;2113;50.946;14.610;2022-09-17T16:12:17;5.65;;;2.45;;
4198;SDS011;2113;50.946;14.610;2022-09-17T16:14:48;5.85;;;2.25;;
4198;SDS011;2113;50.946;14.610;2022-09-17T16:17:29;9.68;;;2.97;;